Ana Sayfa
METAR-TAF:

METAR-TAF

Havaalanları :

Fort Stockton-Pecos County Airport

Fort Stockton, Teksas, Amerika Birleşik Devletleri

Enlem: 30-54-43N, Boylam: 102-55-00W, yükseklik: 917 m

Güncel hava durumu gözlemi

Rapor saat 19:53 UTC de 55 dakika önce yapıldı.
Rüzgar güneydoğudan 10 kt ve 19 kt'a kadar ani rüzgarlar
Sıcaklık 27°C
Nem 39%
Basınç 1020 hPa
Görüş mesafesi: 16.1 km
Açık gökyüzü

METAR: KFST 311953Z AUTO 14010G19KT 10SM CLR 27/12 A3013 RMK AO2 SLP161 T02720122

Saat: 15:48 (20:48 UTC)

Tahmin

Rapor saat 17:20 UTC de 3 saat ve 28 dakika önce yapıldı.
Ayın 31'si saat 18 UTC'den ayın 01'si saat 18 UTC'ye kadar geçerli Tahmin
Rüzgar güneydoğudan 10 kt
Görüş mesafesi: 10 km
25000 ft yükseklikte az bulutlu

TAF: KFST 311720Z 3118/0118 14010KT P6SM FEW250

4.000'den fazla havaalanı için hava durumu gözlemleri ve tahminleri (METAR ve TAF raporları).

Kullanılabilir istasyonlar harita üzerinde sarı ve kırmızı noktalarla gösterilir.

İstasyonun adını görmek için fareyi noktanın üzerinde gezdirin.

Sonrasında hava gözlem ve tahminlerini görmek için tıklayın.

Haritayı değiştirmek için: yaklaştırmak için siyah artı işaretli yeşil düğmeye ve uzaklaştırmak için de eksi işaretli düğmeye hızla tıklayın; bitişik haritalar için yeşil okları kullanın.


METAR-TAF: